createdAt,value
2018-12-02T00:00:23.008Z,12.40
2018-12-02T00:02:51.159Z,12.10
2018-12-02T00:05:19.300Z,12.10
2018-12-02T00:07:47.419Z,12.10
2018-12-02T00:10:16.590Z,12.10
2018-12-02T00:12:44.700Z,12.40
2018-12-02T00:15:17.846Z,12.50
2018-12-02T00:17:45.989Z,12.20
2018-12-02T00:20:14.920Z,14.10
2018-12-02T00:22:43.050Z,12.70
2018-12-02T00:25:12.182Z,12.70
2018-12-02T00:27:40.846Z,12.80
2018-12-02T00:30:16.014Z,12.60
2018-12-02T00:32:44.290Z,12.70
2018-12-02T00:35:13.402Z,12.60
2018-12-02T00:37:42.169Z,12.60
2018-12-02T00:40:12.181Z,12.70
2018-12-02T00:42:40.864Z,12.60
2018-12-02T00:45:10.479Z,12.80
2018-12-02T00:47:38.598Z,12.50
2018-12-02T00:50:08.599Z,12.40
2018-12-02T00:52:36.845Z,12.40
2018-12-02T00:55:07.806Z,12.30
2018-12-02T00:57:35.913Z,12.60
2018-12-02T01:00:04.562Z,13.00
2018-12-02T01:02:32.685Z,13.00
2018-12-02T01:05:00.813Z,12.80
2018-12-02T01:07:28.930Z,12.80
2018-12-02T01:09:57.066Z,13.00
2018-12-02T01:12:25.602Z,13.20
2018-12-02T01:14:53.762Z,13.10
2018-12-02T01:17:21.941Z,13.10
2018-12-02T01:19:50.134Z,13.20
2018-12-02T01:22:18.274Z,13.30
2018-12-02T01:24:46.722Z,13.00
2018-12-02T01:27:14.846Z,12.90
2018-12-02T01:29:43.006Z,12.60
2018-12-02T01:32:11.150Z,12.60
2018-12-02T01:34:39.290Z,12.50
2018-12-02T01:37:07.443Z,12.70
2018-12-02T01:39:35.576Z,12.70
2018-12-02T01:42:04.040Z,12.40
2018-12-02T01:44:32.190Z,12.40
2018-12-02T01:47:00.369Z,12.30
2018-12-02T01:49:28.546Z,12.30
2018-12-02T01:51:56.703Z,12.20
2018-12-02T01:54:24.827Z,12.20
2018-12-02T01:56:52.989Z,12.40
2018-12-02T01:59:21.109Z,12.30
2018-12-02T02:01:49.252Z,12.50
2018-12-02T02:04:17.373Z,12.80
2018-12-02T02:06:45.763Z,12.60
2018-12-02T02:09:13.885Z,12.30
2018-12-02T02:11:42.026Z,12.20
2018-12-02T02:14:10.183Z,12.20
2018-12-02T02:16:38.635Z,12.00
2018-12-02T02:19:06.771Z,12.10
2018-12-02T02:21:34.928Z,12.30
2018-12-02T02:24:03.975Z,12.80
2018-12-02T02:26:32.101Z,12.90
2018-12-02T02:29:00.312Z,12.50
2018-12-02T02:31:28.455Z,12.70
2018-12-02T02:33:56.563Z,12.40
2018-12-02T02:36:24.707Z,12.30
2018-12-02T02:38:52.838Z,12.30
2018-12-02T02:41:21.027Z,12.50
2018-12-02T02:43:49.182Z,12.70
2018-12-02T02:46:17.317Z,12.40
2018-12-02T02:48:45.468Z,12.60
2018-12-02T02:51:13.590Z,12.60
2018-12-02T02:53:41.719Z,12.80
2018-12-02T02:56:09.843Z,12.60
2018-12-02T02:58:37.985Z,12.60
2018-12-02T03:01:06.289Z,12.50
2018-12-02T03:03:34.437Z,12.50
2018-12-02T03:06:03.025Z,12.70
2018-12-02T03:08:31.147Z,12.50
2018-12-02T03:10:59.277Z,12.30
2018-12-02T03:13:27.408Z,12.40
2018-12-02T03:15:55.582Z,12.60
2018-12-02T03:18:23.729Z,12.40
2018-12-02T03:20:51.863Z,12.50
2018-12-02T03:23:20.023Z,12.50
2018-12-02T03:25:48.133Z,12.70
2018-12-02T03:28:16.291Z,12.90
2018-12-02T03:30:44.471Z,13.00
2018-12-02T03:33:12.894Z,13.10
2018-12-02T03:35:41.015Z,13.30
2018-12-02T03:38:09.144Z,13.30
2018-12-02T03:40:37.259Z,13.00
2018-12-02T03:43:05.369Z,12.80
2018-12-02T03:45:33.512Z,13.00
2018-12-02T03:48:01.647Z,12.90
2018-12-02T03:50:29.765Z,12.80
2018-12-02T03:52:57.897Z,12.60
2018-12-02T03:55:26.016Z,12.50
2018-12-02T03:57:54.749Z,12.40
2018-12-02T04:00:24.575Z,12.60
2018-12-02T04:02:53.454Z,13.00
2018-12-02T04:05:25.408Z,12.80
2018-12-02T04:07:53.587Z,12.50
2018-12-02T04:10:22.854Z,12.70
2018-12-02T04:12:51.932Z,12.60
2018-12-02T04:15:22.950Z,12.50
2018-12-02T04:17:51.084Z,12.40
2018-12-02T04:20:19.704Z,12.30
2018-12-02T04:22:48.804Z,12.10
2018-12-02T04:25:17.739Z,12.30
2018-12-02T04:27:45.862Z,12.20
2018-12-02T04:30:15.785Z,12.20
2018-12-02T04:32:44.138Z,12.20
2018-12-02T04:35:15.479Z,12.10
2018-12-02T04:37:43.605Z,12.40
2018-12-02T04:40:13.596Z,12.40
2018-12-02T04:42:41.775Z,12.60
2018-12-02T04:45:18.503Z,12.70
2018-12-02T04:47:46.719Z,12.00
2018-12-02T04:50:18.670Z,12.10
2018-12-02T04:52:46.787Z,12.30
2018-12-02T04:55:14.943Z,12.40
2018-12-02T04:57:43.096Z,12.20
2018-12-02T05:00:12.191Z,12.10
2018-12-02T05:02:40.450Z,12.00
2018-12-02T05:05:11.515Z,12.00
2018-12-02T05:07:40.224Z,12.00
2018-12-02T05:10:10.828Z,12.00
2018-12-02T05:12:39.500Z,11.90
2018-12-02T05:15:09.130Z,12.10
2018-12-02T05:17:37.330Z,12.20
2018-12-02T05:20:10.277Z,12.20
2018-12-02T05:22:38.388Z,12.20
2018-12-02T05:25:08.061Z,12.20
2018-12-02T05:27:36.642Z,12.40
2018-12-02T05:30:09.797Z,12.10
2018-12-02T05:32:37.907Z,12.30
2018-12-02T05:35:06.509Z,12.20
2018-12-02T05:37:34.610Z,12.10
2018-12-02T05:40:02.970Z,12.40
2018-12-02T05:42:32.331Z,12.20
2018-12-02T05:45:01.035Z,12.20
2018-12-02T05:47:29.152Z,12.50
2018-12-02T05:49:57.291Z,12.70
2018-12-02T05:52:25.410Z,12.70
2018-12-02T05:54:53.526Z,12.70
2018-12-02T05:57:21.660Z,12.60
2018-12-02T05:59:49.766Z,12.60
2018-12-02T06:02:17.895Z,12.50
2018-12-02T06:04:46.030Z,12.40
2018-12-02T06:07:14.218Z,12.00
2018-12-02T06:09:42.411Z,12.10
2018-12-02T06:12:10.537Z,12.10
2018-12-02T06:14:38.650Z,12.20
2018-12-02T06:17:06.963Z,12.50
2018-12-02T06:19:35.089Z,12.80
2018-12-02T06:22:03.231Z,12.50
2018-12-02T06:24:31.348Z,12.10
2018-12-02T06:26:59.523Z,12.00
2018-12-02T06:29:27.654Z,11.90
2018-12-02T06:31:55.774Z,12.00
2018-12-02T06:34:23.967Z,12.10
2018-12-02T06:36:52.070Z,12.20
2018-12-02T06:39:20.186Z,12.50
2018-12-02T06:41:48.314Z,12.40
2018-12-02T06:44:16.438Z,12.60
2018-12-02T06:46:44.565Z,12.70
2018-12-02T06:49:12.691Z,12.50
2018-12-02T06:51:40.815Z,12.50
2018-12-02T06:56:43.584Z,12.30
2018-12-02T06:59:19.539Z,12.00
2018-12-02T07:01:51.794Z,12.00
2018-12-02T07:04:22.781Z,12.20
2018-12-02T07:06:50.909Z,12.30
2018-12-02T07:09:19.335Z,12.40
2018-12-02T07:11:47.479Z,12.30
2018-12-02T07:14:15.631Z,12.60
2018-12-02T07:16:43.814Z,12.40
2018-12-02T07:19:14.086Z,12.70
2018-12-02T07:21:42.218Z,12.60
2018-12-02T07:24:11.078Z,12.50
2018-12-02T07:26:39.226Z,12.70
2018-12-02T07:29:07.344Z,13.00
2018-12-02T07:31:35.788Z,12.90
2018-12-02T07:34:05.082Z,12.80
2018-12-02T07:36:33.198Z,12.60
2018-12-02T07:39:19.721Z,12.40
2018-12-02T07:41:47.850Z,12.90
2018-12-02T07:44:15.981Z,12.70
2018-12-02T07:46:44.166Z,12.60
2018-12-02T07:49:12.309Z,12.40
2018-12-02T07:51:40.515Z,12.40
2018-12-02T07:54:08.640Z,12.20
2018-12-02T07:56:36.769Z,12.50
2018-12-02T07:59:05.090Z,12.20
2018-12-02T08:01:33.234Z,12.40
2018-12-02T08:04:01.361Z,12.40
2018-12-02T08:06:29.505Z,12.40
2018-12-02T08:08:57.671Z,12.50
2018-12-02T08:11:25.778Z,12.40
2018-12-02T08:13:53.955Z,12.60
2018-12-02T08:16:22.021Z,12.20
2018-12-02T08:18:50.450Z,12.20
2018-12-02T08:21:18.582Z,12.30
2018-12-02T08:23:46.721Z,12.20
2018-12-02T08:26:14.859Z,12.60
2018-12-02T08:28:42.995Z,12.70
2018-12-02T08:31:11.151Z,12.40
2018-12-02T08:33:39.344Z,12.40
2018-12-02T08:36:07.517Z,12.50
2018-12-02T08:38:35.671Z,12.50
2018-12-02T08:41:05.463Z,12.30
2018-12-02T08:43:33.631Z,12.50
2018-12-02T08:46:01.999Z,12.70
2018-12-02T08:48:30.114Z,12.50
2018-12-02T08:50:58.246Z,12.60
2018-12-02T08:53:26.374Z,12.50
2018-12-02T08:55:54.538Z,12.40
2018-12-02T08:58:22.683Z,12.40
2018-12-02T09:00:50.779Z,12.30
2018-12-02T09:03:18.913Z,12.40
2018-12-02T09:05:47.034Z,12.50
2018-12-02T09:08:15.220Z,12.50
2018-12-02T09:10:45.142Z,12.80
2018-12-02T09:13:12.012Z,12.80
2018-12-02T09:15:40.122Z,12.60
2018-12-02T09:18:09.533Z,12.80
2018-12-02T09:20:37.662Z,12.90
2018-12-02T09:23:07.337Z,12.90
2018-12-02T09:25:35.467Z,13.20
2018-12-02T09:28:03.867Z,13.40
2018-12-02T09:30:33.755Z,13.10
2018-12-02T09:33:01.969Z,13.10
2018-12-02T09:35:30.113Z,13.00
2018-12-02T09:37:58.268Z,12.90
2018-12-02T09:40:26.377Z,12.70
2018-12-02T09:42:55.250Z,12.90
2018-12-02T09:45:27.224Z,12.80
2018-12-02T09:47:58.752Z,13.00
2018-12-02T09:50:26.888Z,12.80
2018-12-02T09:52:55.018Z,13.20
2018-12-02T09:55:30.672Z,13.30
2018-12-02T09:57:58.889Z,13.20
2018-12-02T10:00:27.008Z,13.20
2018-12-02T10:02:55.142Z,13.00
2018-12-02T10:05:23.399Z,13.20
2018-12-02T10:07:52.350Z,13.00
2018-12-02T10:10:22.738Z,13.00
2018-12-02T10:12:56.898Z,13.30
2018-12-02T10:15:25.039Z,13.30
2018-12-02T10:17:53.208Z,13.20
2018-12-02T10:20:21.325Z,13.20
2018-12-02T10:22:49.566Z,13.20
2018-12-02T10:25:18.572Z,12.80
2018-12-02T10:27:46.714Z,12.90
2018-12-02T10:30:22.819Z,13.10
2018-12-02T10:32:51.713Z,13.20
2018-12-02T10:35:19.925Z,13.20
2018-12-02T10:37:48.335Z,13.30
2018-12-02T10:40:18.123Z,13.20
2018-12-02T10:42:46.577Z,13.60
2018-12-02T10:45:21.386Z,13.80
2018-12-02T10:47:50.497Z,13.50
2018-12-02T10:50:21.944Z,13.60
2018-12-02T10:52:50.845Z,13.60
2018-12-02T10:55:43.425Z,13.60
2018-12-02T10:58:13.187Z,13.30
2018-12-02T11:00:46.792Z,13.50
2018-12-02T11:03:14.952Z,13.40
2018-12-02T11:05:43.074Z,13.70
2018-12-02T11:08:11.247Z,13.70
2018-12-02T11:10:39.391Z,13.70
2018-12-02T11:13:07.517Z,13.70
2018-12-02T11:15:35.638Z,13.30
2018-12-02T11:18:03.830Z,13.80
2018-12-02T11:20:31.992Z,13.90
2018-12-02T11:23:00.128Z,14.00
2018-12-02T11:25:28.247Z,14.10
2018-12-02T11:27:56.386Z,14.10
2018-12-02T11:30:24.562Z,14.30
2018-12-02T11:32:53.064Z,14.40
2018-12-02T11:35:21.196Z,14.10
2018-12-02T11:37:49.335Z,14.30
2018-12-02T11:40:19.527Z,14.50
2018-12-02T11:42:48.418Z,14.40
2018-12-02T11:45:16.573Z,14.40
2018-12-02T11:47:46.697Z,14.60
2018-12-02T11:50:15.814Z,14.80
2018-12-02T11:52:43.958Z,14.70
2018-12-02T11:55:12.967Z,14.90
2018-12-02T11:57:41.107Z,14.90
2018-12-02T12:00:21.554Z,14.80
2018-12-02T12:02:50.018Z,15.20
2018-12-02T12:05:18.130Z,15.00
2018-12-02T12:07:47.106Z,14.90
2018-12-02T12:10:17.163Z,14.80
2018-12-02T12:12:46.085Z,14.80
2018-12-02T12:15:18.295Z,15.50
2018-12-02T12:17:46.434Z,15.50
2018-12-02T12:20:32.509Z,15.30
2018-12-02T12:23:03.502Z,15.40
2018-12-02T12:25:31.615Z,15.20
2018-12-02T12:27:59.870Z,15.30
2018-12-02T12:30:30.362Z,15.60
2018-12-02T12:32:58.523Z,15.60
2018-12-02T12:35:26.713Z,15.70
2018-12-02T12:37:55.045Z,15.30
2018-12-02T12:40:25.779Z,15.40
2018-12-02T12:42:55.705Z,15.60
2018-12-02T12:45:24.022Z,15.90
2018-12-02T12:47:52.208Z,16.00
2018-12-02T12:50:20.337Z,15.90
2018-12-02T12:52:48.459Z,16.20
2018-12-02T12:55:17.097Z,16.00
2018-12-02T12:57:45.897Z,15.60
2018-12-02T13:00:17.134Z,15.60
2018-12-02T13:02:45.411Z,16.00
2018-12-02T13:05:16.668Z,16.10
2018-12-02T13:07:44.784Z,15.60
2018-12-02T13:10:13.901Z,16.00
2018-12-02T13:12:42.074Z,15.70
2018-12-02T13:15:12.320Z,15.40
2018-12-02T13:17:40.901Z,16.00
2018-12-02T13:20:15.259Z,15.80
2018-12-02T13:22:43.438Z,15.90
2018-12-02T13:25:12.730Z,15.60
2018-12-02T13:27:41.531Z,15.50
2018-12-02T13:30:13.084Z,15.40
2018-12-02T13:32:41.293Z,15.90
2018-12-02T13:35:10.090Z,16.00
2018-12-02T13:37:38.257Z,15.80
2018-12-02T13:40:22.959Z,15.80
2018-12-02T13:42:53.693Z,15.80
2018-12-02T13:45:23.097Z,16.20
2018-12-02T13:47:51.219Z,16.00
2018-12-02T13:50:19.858Z,16.30
2018-12-02T13:52:49.953Z,16.10
2018-12-02T13:55:20.270Z,16.40
2018-12-02T13:57:48.662Z,16.50
2018-12-02T14:00:20.955Z,16.70
2018-12-02T14:02:50.719Z,16.40
2018-12-02T14:05:18.858Z,16.30
2018-12-02T14:07:47.276Z,16.10
2018-12-02T14:10:16.115Z,16.10
2018-12-02T14:13:18.028Z,16.10
2018-12-02T14:15:51.171Z,16.00
2018-12-02T14:18:29.801Z,15.90
2018-12-02T14:20:57.979Z,15.90
2018-12-02T14:23:26.136Z,15.70
2018-12-02T14:25:55.767Z,15.70
2018-12-02T14:28:28.844Z,16.10
2018-12-02T14:30:56.968Z,15.90
2018-12-02T14:33:25.107Z,15.90
2018-12-02T14:35:53.236Z,16.00
2018-12-02T14:38:21.416Z,16.10
2018-12-02T14:40:49.624Z,15.70
2018-12-02T14:43:17.766Z,15.70
2018-12-02T14:45:45.946Z,16.00
2018-12-02T14:48:14.085Z,16.00
2018-12-02T14:50:42.197Z,16.00
2018-12-02T14:53:10.323Z,16.30
2018-12-02T14:55:38.464Z,16.40
2018-12-02T14:58:06.595Z,16.50
2018-12-02T15:00:34.790Z,16.40
2018-12-02T15:03:02.954Z,16.20
2018-12-02T15:05:31.126Z,16.20
2018-12-02T15:07:59.222Z,16.00
2018-12-02T15:10:27.430Z,15.90
2018-12-02T15:12:55.586Z,15.80
2018-12-02T15:15:23.729Z,16.00
2018-12-02T15:17:51.957Z,15.50
2018-12-02T15:20:22.136Z,15.60
2018-12-02T15:22:51.052Z,15.70
2018-12-02T15:25:19.310Z,15.70
2018-12-02T15:27:47.442Z,15.70
2018-12-02T15:30:16.582Z,15.50
2018-12-02T15:32:46.075Z,15.70
2018-12-02T15:35:14.214Z,15.80
2018-12-02T15:37:42.419Z,15.80
2018-12-02T15:40:11.778Z,15.80
2018-12-02T15:42:41.554Z,15.70
2018-12-02T15:45:11.239Z,15.80
2018-12-02T15:47:39.375Z,16.10
2018-12-02T15:50:13.523Z,16.10
2018-12-02T15:52:41.757Z,16.20
2018-12-02T15:55:12.542Z,16.10
2018-12-02T15:57:40.714Z,16.10
2018-12-02T16:00:18.221Z,16.00
2018-12-02T16:02:46.363Z,16.20
2018-12-02T16:05:14.547Z,16.30
2018-12-02T16:07:42.710Z,16.20
2018-12-02T16:10:11.935Z,16.30
2018-12-02T16:12:41.096Z,16.30
2018-12-02T16:15:13.418Z,16.40
2018-12-02T16:17:41.910Z,16.40
2018-12-02T16:20:13.304Z,15.90
2018-12-02T16:22:41.603Z,15.90
2018-12-02T16:25:10.407Z,16.10
2018-12-02T16:27:38.544Z,16.00
2018-12-02T16:30:16.197Z,15.80
2018-12-02T16:32:45.530Z,15.60
2018-12-02T16:35:14.310Z,16.00
2018-12-02T16:37:42.521Z,15.80
2018-12-02T16:40:16.735Z,15.90
2018-12-02T16:42:44.850Z,15.70
2018-12-02T16:45:15.561Z,15.80
2018-12-02T16:47:44.770Z,15.80
2018-12-02T16:50:20.824Z,15.70
2018-12-02T16:52:49.210Z,16.00
2018-12-02T16:55:19.023Z,15.60
2018-12-02T16:57:52.941Z,15.80
2018-12-02T17:00:27.546Z,15.60
2018-12-02T17:02:55.696Z,16.00
2018-12-02T17:05:23.819Z,15.90
2018-12-02T17:07:51.924Z,15.60
2018-12-02T17:10:20.074Z,15.70
2018-12-02T17:12:48.215Z,15.70
2018-12-02T17:15:16.439Z,15.70
2018-12-02T17:17:44.569Z,15.80
2018-12-02T17:20:16.858Z,15.60
2018-12-02T17:22:45.726Z,16.00
2018-12-02T17:25:14.525Z,15.80
2018-12-02T17:27:44.326Z,16.30
2018-12-02T17:30:23.302Z,16.30
2018-12-02T17:32:51.781Z,16.50
2018-12-02T17:35:19.951Z,16.40
2018-12-02T17:37:48.094Z,16.50
2018-12-02T17:40:18.206Z,16.30
2018-12-02T17:42:46.370Z,16.40
2018-12-02T17:45:14.534Z,16.60
2018-12-02T17:47:42.685Z,16.30
2018-12-02T17:50:12.481Z,16.10
2018-12-02T17:52:41.234Z,16.30
2018-12-02T17:55:09.420Z,16.30
2018-12-02T17:57:37.532Z,16.50
2018-12-02T18:00:10.977Z,16.10
2018-12-02T18:02:39.081Z,16.10
2018-12-02T18:05:10.418Z,16.00
2018-12-02T18:07:38.535Z,16.60
2018-12-02T18:10:09.377Z,16.10
2018-12-02T18:12:37.503Z,16.30
2018-12-02T18:15:10.059Z,16.00
2018-12-02T18:17:38.370Z,15.80
2018-12-02T18:20:08.579Z,15.90
2018-12-02T18:22:37.046Z,15.80
2018-12-02T18:25:08.502Z,16.20
2018-12-02T18:27:36.624Z,16.00
2018-12-02T18:30:37.537Z,16.30
2018-12-02T18:33:06.322Z,16.50
2018-12-02T18:35:40.411Z,16.50
2018-12-02T18:38:14.429Z,16.60
2018-12-02T18:40:46.002Z,15.90
2018-12-02T18:43:14.201Z,15.90
2018-12-02T18:45:42.339Z,16.20
2018-12-02T18:48:10.470Z,16.40
2018-12-02T18:50:38.898Z,16.30
2018-12-02T18:53:07.131Z,16.00
2018-12-02T18:55:35.288Z,16.10
2018-12-02T18:58:03.404Z,16.30
2018-12-02T19:00:37.135Z,16.40
2018-12-02T19:03:06.178Z,16.40
2018-12-02T19:05:34.322Z,16.00
2018-12-02T19:08:02.958Z,16.30
2018-12-02T19:10:31.142Z,16.40
2018-12-02T19:12:59.254Z,16.50
2018-12-02T19:15:27.398Z,16.40
2018-12-02T19:17:55.529Z,16.40
2018-12-02T19:20:26.501Z,16.20
2018-12-02T19:22:57.030Z,16.50
2018-12-02T19:25:27.787Z,16.50
2018-12-02T19:27:55.968Z,16.20
2018-12-02T19:30:24.398Z,16.50
2018-12-02T19:32:52.694Z,16.20
2018-12-02T19:35:28.683Z,16.60
2018-12-02T19:38:01.738Z,17.10
2018-12-02T19:40:30.274Z,16.50
2018-12-02T19:42:58.665Z,16.20
2018-12-02T19:45:26.780Z,16.10
2018-12-02T19:47:54.916Z,16.50
2018-12-02T19:50:23.055Z,16.60
2018-12-02T19:52:51.468Z,16.80
2018-12-02T19:55:19.967Z,16.80
2018-12-02T19:57:49.087Z,16.60
2018-12-02T20:00:25.246Z,16.70
2018-12-02T20:02:53.830Z,16.50
2018-12-02T20:05:21.987Z,16.30
2018-12-02T20:07:52.879Z,16.20
2018-12-02T20:10:22.557Z,16.00
2018-12-02T20:12:50.691Z,16.30
2018-12-02T20:15:18.842Z,16.30
2018-12-02T20:17:46.966Z,16.00
2018-12-02T20:20:21.847Z,16.10
2018-12-02T20:22:50.178Z,16.10
2018-12-02T20:25:19.075Z,16.10
2018-12-02T20:27:47.213Z,16.30
2018-12-02T20:30:18.627Z,16.20
2018-12-02T20:32:46.840Z,16.50
2018-12-02T20:35:14.970Z,16.50
2018-12-02T20:37:43.098Z,16.70
2018-12-02T20:40:17.438Z,16.60
2018-12-02T20:42:46.246Z,16.70
2018-12-02T20:45:15.357Z,16.60
2018-12-02T20:47:43.466Z,16.70
2018-12-02T20:50:12.819Z,16.60
2018-12-02T20:52:40.939Z,16.40
2018-12-02T20:55:15.336Z,16.70
2018-12-02T20:57:43.709Z,16.90
2018-12-02T21:00:16.553Z,16.70
2018-12-02T21:02:50.471Z,16.90
2018-12-02T21:05:20.919Z,16.80
2018-12-02T21:07:49.082Z,16.60
2018-12-02T21:10:17.218Z,16.70
2018-12-02T21:12:45.361Z,16.50
2018-12-02T21:15:14.204Z,16.60
2018-12-02T21:17:42.607Z,16.40
2018-12-02T21:20:11.906Z,16.50
2018-12-02T21:22:40.039Z,16.60
2018-12-02T21:25:13.043Z,16.50
2018-12-02T21:27:41.187Z,16.20
2018-12-02T21:30:18.426Z,16.20
2018-12-02T21:32:46.551Z,16.60
2018-12-02T21:35:14.678Z,16.60
2018-12-02T21:37:43.060Z,16.10
2018-12-02T21:40:12.537Z,16.20
2018-12-02T21:42:40.697Z,16.20
2018-12-02T21:45:10.017Z,16.30
2018-12-02T21:47:38.923Z,15.80
2018-12-02T21:50:11.070Z,16.10
2018-12-02T21:52:39.239Z,16.40
2018-12-02T21:55:07.831Z,16.20
2018-12-02T21:57:36.541Z,16.10
2018-12-02T22:00:21.975Z,16.20
2018-12-02T22:02:51.101Z,16.60
2018-12-02T22:05:19.695Z,15.60
2018-12-02T22:07:48.273Z,16.00
2018-12-02T22:10:24.696Z,16.20
2018-12-02T22:12:52.983Z,16.10
2018-12-02T22:15:21.152Z,16.20
2018-12-02T22:17:49.274Z,16.10
2018-12-02T22:20:17.613Z,15.90
2018-12-02T22:22:45.757Z,16.10
2018-12-02T22:25:15.978Z,15.80
2018-12-02T22:27:45.454Z,16.20
2018-12-02T22:30:15.653Z,16.00
2018-12-02T22:32:43.814Z,16.00
2018-12-02T22:35:12.758Z,16.40
2018-12-02T22:37:40.906Z,16.40
2018-12-02T22:40:13.334Z,16.40
2018-12-02T22:42:41.448Z,16.80
2018-12-02T22:45:10.941Z,16.70
2018-12-02T22:47:39.110Z,16.80
2018-12-02T22:50:09.877Z,16.70
2018-12-02T22:52:38.037Z,16.50
2018-12-02T22:55:08.322Z,16.30
2018-12-02T22:57:37.210Z,16.70
2018-12-02T23:00:19.808Z,16.70
2018-12-02T23:02:55.794Z,16.70
2018-12-02T23:05:23.926Z,16.50
2018-12-02T23:07:52.019Z,16.60
2018-12-02T23:10:20.149Z,16.20
2018-12-02T23:12:48.721Z,16.10
2018-12-02T23:15:16.841Z,16.10
2018-12-02T23:17:44.978Z,16.30
2018-12-02T23:20:13.102Z,16.00
2018-12-02T23:22:41.230Z,16.20
2018-12-02T23:25:10.631Z,16.50
2018-12-02T23:27:38.762Z,16.30
2018-12-02T23:30:15.423Z,16.30
2018-12-02T23:32:43.587Z,16.20
2018-12-02T23:35:11.718Z,16.60
2018-12-02T23:37:39.847Z,16.60
2018-12-02T23:40:10.814Z,16.60
2018-12-02T23:42:39.287Z,16.80
2018-12-02T23:45:09.957Z,16.80
2018-12-02T23:47:38.094Z,16.50
2018-12-02T23:50:09.974Z,16.40
2018-12-02T23:52:38.111Z,16.40
2018-12-02T23:55:09.197Z,16.30
2018-12-02T23:57:37.350Z,16.00
